sensor_id;sensor_type;location;lat;lon;timestamp;temperature;humidity
67054;SHT31;53960;51.826;5.850;2023-05-10T00:00:50;14.52;91.47
67054;SHT31;53960;51.826;5.850;2023-05-10T00:03:16;14.57;91.32
67054;SHT31;53960;51.826;5.850;2023-05-10T00:05:41;14.59;91.09
67054;SHT31;53960;51.826;5.850;2023-05-10T00:08:07;14.57;91.14
67054;SHT31;53960;51.826;5.850;2023-05-10T00:10:32;14.63;91.10
67054;SHT31;53960;51.826;5.850;2023-05-10T00:12:57;14.57;90.97
67054;SHT31;53960;51.826;5.850;2023-05-10T00:15:23;14.57;91.10
67054;SHT31;53960;51.826;5.850;2023-05-10T00:17:48;14.53;91.09
67054;SHT31;53960;51.826;5.850;2023-05-10T00:20:13;14.59;91.08
67054;SHT31;53960;51.826;5.850;2023-05-10T00:22:39;14.52;91.37
67054;SHT31;53960;51.826;5.850;2023-05-10T00:25:05;14.53;91.61
67054;SHT31;53960;51.826;5.850;2023-05-10T00:27:31;14.53;91.62
67054;SHT31;53960;51.826;5.850;2023-05-10T00:29:56;14.53;91.63
67054;SHT31;53960;51.826;5.850;2023-05-10T00:32:21;14.50;91.56
67054;SHT31;53960;51.826;5.850;2023-05-10T00:34:47;14.52;91.45
67054;SHT31;53960;51.826;5.850;2023-05-10T00:37:12;14.46;91.71
67054;SHT31;53960;51.826;5.850;2023-05-10T00:39:37;14.50;91.56
67054;SHT31;53960;51.826;5.850;2023-05-10T00:42:03;14.48;91.72
67054;SHT31;53960;51.826;5.850;2023-05-10T00:44:29;14.52;91.46
67054;SHT31;53960;51.826;5.850;2023-05-10T00:46:56;14.55;91.43
67054;SHT31;53960;51.826;5.850;2023-05-10T00:49:21;14.50;91.57
67054;SHT31;53960;51.826;5.850;2023-05-10T00:51:46;14.49;91.63
67054;SHT31;53960;51.826;5.850;2023-05-10T00:54:14;14.53;91.58
67054;SHT31;53960;51.826;5.850;2023-05-10T00:56:40;14.53;91.42
67054;SHT31;53960;51.826;5.850;2023-05-10T00:59:07;14.50;91.49
67054;SHT31;53960;51.826;5.850;2023-05-10T01:01:33;14.50;91.51
67054;SHT31;53960;51.826;5.850;2023-05-10T01:03:58;14.46;91.85
67054;SHT31;53960;51.826;5.850;2023-05-10T01:06:24;14.52;91.81
67054;SHT31;53960;51.826;5.850;2023-05-10T01:08:50;14.57;91.41
67054;SHT31;53960;51.826;5.850;2023-05-10T01:11:15;14.50;91.29
67054;SHT31;53960;51.826;5.850;2023-05-10T01:13:42;14.50;91.09
67054;SHT31;53960;51.826;5.850;2023-05-10T01:16:07;14.52;91.49
67054;SHT31;53960;51.826;5.850;2023-05-10T01:18:35;14.49;91.39
67054;SHT31;53960;51.826;5.850;2023-05-10T01:21:14;14.46;91.52
67054;SHT31;53960;51.826;5.850;2023-05-10T01:26:34;14.43;91.61
67054;SHT31;53960;51.826;5.850;2023-05-10T01:32:16;14.46;91.26
67054;SHT31;53960;51.826;5.850;2023-05-10T01:37:22;14.45;91.26
67054;SHT31;53960;51.826;5.850;2023-05-10T01:40:30;14.46;91.44
67054;SHT31;53960;51.826;5.850;2023-05-10T01:43:03;14.43;91.57
67054;SHT31;53960;51.826;5.850;2023-05-10T01:45:33;14.40;91.67
67054;SHT31;53960;51.826;5.850;2023-05-10T01:48:09;14.46;91.51
67054;SHT31;53960;51.826;5.850;2023-05-10T01:50:37;14.40;91.33
67054;SHT31;53960;51.826;5.850;2023-05-10T01:53:06;14.46;91.29
67054;SHT31;53960;51.826;5.850;2023-05-10T01:55:35;14.42;91.13
67054;SHT31;53960;51.826;5.850;2023-05-10T01:58:07;14.36;91.39
67054;SHT31;53960;51.826;5.850;2023-05-10T02:00:34;14.39;91.40
67054;SHT31;53960;51.826;5.850;2023-05-10T02:03:03;14.39;90.93
67054;SHT31;53960;51.826;5.850;2023-05-10T02:05:32;14.43;91.00
67054;SHT31;53960;51.826;5.850;2023-05-10T02:07:58;14.39;91.00
67054;SHT31;53960;51.826;5.850;2023-05-10T02:10:25;14.39;90.90
67054;SHT31;53960;51.826;5.850;2023-05-10T02:12:53;14.40;91.11
67054;SHT31;53960;51.826;5.850;2023-05-10T02:15:22;14.32;91.29
67054;SHT31;53960;51.826;5.850;2023-05-10T02:17:48;14.33;91.16
67054;SHT31;53960;51.826;5.850;2023-05-10T02:20:16;14.40;90.64
67054;SHT31;53960;51.826;5.850;2023-05-10T02:22:42;14.32;90.99
67054;SHT31;53960;51.826;5.850;2023-05-10T02:25:08;14.29;91.32
67054;SHT31;53960;51.826;5.850;2023-05-10T02:27:34;14.24;91.52
67054;SHT31;53960;51.826;5.850;2023-05-10T02:30:01;14.28;91.56
67054;SHT31;53960;51.826;5.850;2023-05-10T02:32:27;14.30;91.13
67054;SHT31;53960;51.826;5.850;2023-05-10T02:34:53;14.32;91.03
67054;SHT31;53960;51.826;5.850;2023-05-10T02:37:20;14.32;91.01
67054;SHT31;53960;51.826;5.850;2023-05-10T02:39:50;14.32;90.92
67054;SHT31;53960;51.826;5.850;2023-05-10T02:42:18;14.32;90.46
67054;SHT31;53960;51.826;5.850;2023-05-10T02:44:45;14.30;90.71
67054;SHT31;53960;51.826;5.850;2023-05-10T02:47:12;14.30;90.42
67054;SHT31;53960;51.826;5.850;2023-05-10T02:49:37;14.32;89.72
67054;SHT31;53960;51.826;5.850;2023-05-10T02:52:05;14.25;90.05
67054;SHT31;53960;51.826;5.850;2023-05-10T02:54:39;14.19;89.45
67054;SHT31;53960;51.826;5.850;2023-05-10T02:57:07;14.15;89.72
67054;SHT31;53960;51.826;5.850;2023-05-10T02:59:33;14.09;90.03
67054;SHT31;53960;51.826;5.850;2023-05-10T03:01:59;14.09;89.97
67054;SHT31;53960;51.826;5.850;2023-05-10T03:04:25;14.02;90.55
67054;SHT31;53960;51.826;5.850;2023-05-10T03:06:51;14.04;90.51
67054;SHT31;53960;51.826;5.850;2023-05-10T03:09:16;14.02;90.50
67054;SHT31;53960;51.826;5.850;2023-05-10T03:12:03;14.01;90.69
67054;SHT31;53960;51.826;5.850;2023-05-10T03:14:53;13.97;90.89
67054;SHT31;53960;51.826;5.850;2023-05-10T03:17:25;14.01;90.90
67054;SHT31;53960;51.826;5.850;2023-05-10T03:19:57;14.02;90.36
67054;SHT31;53960;51.826;5.850;2023-05-10T03:22:37;13.98;90.63
67054;SHT31;53960;51.826;5.850;2023-05-10T03:25:06;14.00;90.92
67054;SHT31;53960;51.826;5.850;2023-05-10T03:27:35;14.04;90.67
67054;SHT31;53960;51.826;5.850;2023-05-10T03:30:02;14.00;91.19
67054;SHT31;53960;51.826;5.850;2023-05-10T03:32:29;14.02;90.96
67054;SHT31;53960;51.826;5.850;2023-05-10T03:34:55;14.01;90.90
67054;SHT31;53960;51.826;5.850;2023-05-10T03:37:20;14.00;90.86
67054;SHT31;53960;51.826;5.850;2023-05-10T03:39:45;13.97;91.39
67054;SHT31;53960;51.826;5.850;2023-05-10T03:42:11;14.02;90.92
67054;SHT31;53960;51.826;5.850;2023-05-10T03:44:38;14.12;90.65
67054;SHT31;53960;51.826;5.850;2023-05-10T03:47:03;14.07;90.40
67054;SHT31;53960;51.826;5.850;2023-05-10T03:49:29;14.12;90.39
67054;SHT31;53960;51.826;5.850;2023-05-10T03:51:54;14.09;90.42
67054;SHT31;53960;51.826;5.850;2023-05-10T03:54:19;14.09;90.24
67054;SHT31;53960;51.826;5.850;2023-05-10T03:56:45;14.09;90.43
67054;SHT31;53960;51.826;5.850;2023-05-10T03:59:12;14.04;90.61
67054;SHT31;53960;51.826;5.850;2023-05-10T04:01:38;14.09;90.50
67054;SHT31;53960;51.826;5.850;2023-05-10T04:04:03;14.08;90.64
67054;SHT31;53960;51.826;5.850;2023-05-10T04:06:28;14.09;90.93
67054;SHT31;53960;51.826;5.850;2023-05-10T04:08:54;14.09;90.94
67054;SHT31;53960;51.826;5.850;2023-05-10T04:11:20;14.14;90.59
67054;SHT31;53960;51.826;5.850;2023-05-10T04:13:46;14.11;90.88
67054;SHT31;53960;51.826;5.850;2023-05-10T04:16:12;14.09;90.98
67054;SHT31;53960;51.826;5.850;2023-05-10T04:18:37;14.05;91.02
67054;SHT31;53960;51.826;5.850;2023-05-10T04:21:03;14.07;90.94
67054;SHT31;53960;51.826;5.850;2023-05-10T04:23:28;14.09;90.86
67054;SHT31;53960;51.826;5.850;2023-05-10T04:26:00;14.07;90.90
67054;SHT31;53960;51.826;5.850;2023-05-10T04:28:25;14.09;91.02
67054;SHT31;53960;51.826;5.850;2023-05-10T04:30:50;14.14;90.83
67054;SHT31;53960;51.826;5.850;2023-05-10T04:33:16;14.18;90.56
67054;SHT31;53960;51.826;5.850;2023-05-10T04:35:41;14.11;90.82
67054;SHT31;53960;51.826;5.850;2023-05-10T04:38:07;14.07;91.04
67054;SHT31;53960;51.826;5.850;2023-05-10T04:40:32;14.07;91.20
67054;SHT31;53960;51.826;5.850;2023-05-10T04:42:58;14.08;91.11
67054;SHT31;53960;51.826;5.850;2023-05-10T04:45:23;14.09;91.08
67054;SHT31;53960;51.826;5.850;2023-05-10T04:47:48;14.12;90.85
67054;SHT31;53960;51.826;5.850;2023-05-10T04:50:14;14.08;90.97
67054;SHT31;53960;51.826;5.850;2023-05-10T04:52:39;14.08;90.87
67054;SHT31;53960;51.826;5.850;2023-05-10T04:55:04;14.11;91.21
67054;SHT31;53960;51.826;5.850;2023-05-10T04:57:32;14.09;91.13
67054;SHT31;53960;51.826;5.850;2023-05-10T04:59:57;14.12;91.22
67054;SHT31;53960;51.826;5.850;2023-05-10T05:02:23;14.15;90.85
67054;SHT31;53960;51.826;5.850;2023-05-10T05:04:48;14.15;90.87
67054;SHT31;53960;51.826;5.850;2023-05-10T05:07:14;14.12;91.06
67054;SHT31;53960;51.826;5.850;2023-05-10T05:09:39;14.12;91.34
67054;SHT31;53960;51.826;5.850;2023-05-10T05:12:05;14.11;91.30
67054;SHT31;53960;51.826;5.850;2023-05-10T05:14:30;14.12;91.32
67054;SHT31;53960;51.826;5.850;2023-05-10T05:16:56;14.15;91.30
67054;SHT31;53960;51.826;5.850;2023-05-10T05:19:21;14.17;90.95
67054;SHT31;53960;51.826;5.850;2023-05-10T05:21:47;14.19;90.80
67054;SHT31;53960;51.826;5.850;2023-05-10T05:24:12;14.19;90.77
67054;SHT31;53960;51.826;5.850;2023-05-10T05:26:38;14.22;90.65
67054;SHT31;53960;51.826;5.850;2023-05-10T05:29:03;14.22;90.30
67054;SHT31;53960;51.826;5.850;2023-05-10T05:31:29;14.19;90.47
67054;SHT31;53960;51.826;5.850;2023-05-10T05:33:54;14.25;90.70
67054;SHT31;53960;51.826;5.850;2023-05-10T05:36:20;14.28;90.31
67054;SHT31;53960;51.826;5.850;2023-05-10T05:38:45;14.32;90.42
67054;SHT31;53960;51.826;5.850;2023-05-10T05:41:11;14.30;90.81
67054;SHT31;53960;51.826;5.850;2023-05-10T05:43:36;14.32;90.75
67054;SHT31;53960;51.826;5.850;2023-05-10T05:46:01;14.35;90.74
67054;SHT31;53960;51.826;5.850;2023-05-10T05:48:27;14.36;90.61
67054;SHT31;53960;51.826;5.850;2023-05-10T05:50:55;14.35;90.92
67054;SHT31;53960;51.826;5.850;2023-05-10T05:53:21;14.40;90.11
67054;SHT31;53960;51.826;5.850;2023-05-10T05:55:57;14.43;89.73
67054;SHT31;53960;51.826;5.850;2023-05-10T05:58:23;14.40;89.48
67054;SHT31;53960;51.826;5.850;2023-05-10T06:00:49;14.38;89.72
67054;SHT31;53960;51.826;5.850;2023-05-10T06:03:15;14.42;89.88
67054;SHT31;53960;51.826;5.850;2023-05-10T06:05:40;14.52;89.50
67054;SHT31;53960;51.826;5.850;2023-05-10T06:08:06;14.62;89.47
67054;SHT31;53960;51.826;5.850;2023-05-10T06:10:31;14.63;89.30
67054;SHT31;53960;51.826;5.850;2023-05-10T06:12:56;14.60;89.37
67054;SHT31;53960;51.826;5.850;2023-05-10T06:15:22;14.67;89.33
67054;SHT31;53960;51.826;5.850;2023-05-10T06:17:47;14.70;89.03
67054;SHT31;53960;51.826;5.850;2023-05-10T06:20:14;14.73;89.18
67054;SHT31;53960;51.826;5.850;2023-05-10T06:22:40;14.70;89.42
67054;SHT31;53960;51.826;5.850;2023-05-10T06:25:06;14.69;89.17
67054;SHT31;53960;51.826;5.850;2023-05-10T06:27:31;14.67;88.85
67054;SHT31;53960;51.826;5.850;2023-05-10T06:29:57;14.62;89.19
67054;SHT31;53960;51.826;5.850;2023-05-10T06:32:22;14.59;89.45
67054;SHT31;53960;51.826;5.850;2023-05-10T06:34:47;14.48;89.69
67054;SHT31;53960;51.826;5.850;2023-05-10T06:37:13;14.50;89.49
67054;SHT31;53960;51.826;5.850;2023-05-10T06:39:38;14.53;89.51
67054;SHT31;53960;51.826;5.850;2023-05-10T06:42:03;14.52;89.29
67054;SHT31;53960;51.826;5.850;2023-05-10T06:44:29;14.48;89.30
67054;SHT31;53960;51.826;5.850;2023-05-10T06:46:55;14.45;89.38
67054;SHT31;53960;51.826;5.850;2023-05-10T06:49:21;14.38;89.79
67054;SHT31;53960;51.826;5.850;2023-05-10T06:51:46;14.42;89.91
67054;SHT31;53960;51.826;5.850;2023-05-10T06:54:11;14.39;89.93
67054;SHT31;53960;51.826;5.850;2023-05-10T06:56:36;14.43;89.47
67054;SHT31;53960;51.826;5.850;2023-05-10T06:59:02;14.40;89.68
67054;SHT31;53960;51.826;5.850;2023-05-10T07:01:28;14.38;89.82
67054;SHT31;53960;51.826;5.850;2023-05-10T07:03:53;14.33;89.76
67054;SHT31;53960;51.826;5.850;2023-05-10T07:06:18;14.35;89.96
67054;SHT31;53960;51.826;5.850;2023-05-10T07:08:44;14.36;89.66
67054;SHT31;53960;51.826;5.850;2023-05-10T07:11:09;14.35;89.72
67054;SHT31;53960;51.826;5.850;2023-05-10T07:13:37;14.42;89.43
67054;SHT31;53960;51.826;5.850;2023-05-10T07:16:06;14.45;89.39
67054;SHT31;53960;51.826;5.850;2023-05-10T07:18:32;14.43;89.39
67054;SHT31;53960;51.826;5.850;2023-05-10T07:20:58;14.45;89.08
67054;SHT31;53960;51.826;5.850;2023-05-10T07:23:23;14.49;89.03
67054;SHT31;53960;51.826;5.850;2023-05-10T07:25:49;14.46;89.10
67054;SHT31;53960;51.826;5.850;2023-05-10T07:28:17;14.43;89.44
67054;SHT31;53960;51.826;5.850;2023-05-10T07:30:42;14.42;89.58
67054;SHT31;53960;51.826;5.850;2023-05-10T07:33:09;14.48;89.32
67054;SHT31;53960;51.826;5.850;2023-05-10T07:35:35;14.49;89.62
67054;SHT31;53960;51.826;5.850;2023-05-10T07:38:01;14.53;89.73
67054;SHT31;53960;51.826;5.850;2023-05-10T07:40:27;14.55;89.86
67054;SHT31;53960;51.826;5.850;2023-05-10T07:42:52;14.57;89.68
67054;SHT31;53960;51.826;5.850;2023-05-10T07:45:18;14.63;89.18
67054;SHT31;53960;51.826;5.850;2023-05-10T07:47:43;14.70;88.96
67054;SHT31;53960;51.826;5.850;2023-05-10T07:50:09;14.69;88.98
67054;SHT31;53960;51.826;5.850;2023-05-10T07:52:34;14.72;89.24
67054;SHT31;53960;51.826;5.850;2023-05-10T07:54:59;14.75;89.35
67054;SHT31;53960;51.826;5.850;2023-05-10T07:57:25;14.87;89.08
67054;SHT31;53960;51.826;5.850;2023-05-10T07:59:50;14.93;89.07
67054;SHT31;53960;51.826;5.850;2023-05-10T08:02:15;14.96;88.75
67054;SHT31;53960;51.826;5.850;2023-05-10T08:04:40;15.00;88.94
67054;SHT31;53960;51.826;5.850;2023-05-10T08:07:06;15.06;88.66
67054;SHT31;53960;51.826;5.850;2023-05-10T08:09:32;15.08;88.47
67054;SHT31;53960;51.826;5.850;2023-05-10T08:11:57;15.01;87.66
67054;SHT31;53960;51.826;5.850;2023-05-10T08:14:24;15.01;88.15
67054;SHT31;53960;51.826;5.850;2023-05-10T08:16:49;15.08;88.00
67054;SHT31;53960;51.826;5.850;2023-05-10T08:19:15;15.10;88.74
67054;SHT31;53960;51.826;5.850;2023-05-10T08:21:44;15.12;87.67
67054;SHT31;53960;51.826;5.850;2023-05-10T08:24:09;15.08;87.68
67054;SHT31;53960;51.826;5.850;2023-05-10T08:26:35;15.14;87.75
67054;SHT31;53960;51.826;5.850;2023-05-10T08:29:00;15.16;87.32
67054;SHT31;53960;51.826;5.850;2023-05-10T08:31:25;15.17;87.29
67054;SHT31;53960;51.826;5.850;2023-05-10T08:33:50;15.27;86.29
67054;SHT31;53960;51.826;5.850;2023-05-10T08:36:17;15.34;86.15
67054;SHT31;53960;51.826;5.850;2023-05-10T08:38:46;15.30;85.58
67054;SHT31;53960;51.826;5.850;2023-05-10T08:41:13;15.31;86.23
67054;SHT31;53960;51.826;5.850;2023-05-10T08:43:38;15.28;86.73
67054;SHT31;53960;51.826;5.850;2023-05-10T08:46:05;15.23;86.85
67054;SHT31;53960;51.826;5.850;2023-05-10T08:48:33;15.18;86.39
67054;SHT31;53960;51.826;5.850;2023-05-10T08:51:00;15.14;86.67
67054;SHT31;53960;51.826;5.850;2023-05-10T08:53:26;15.17;86.84
67054;SHT31;53960;51.826;5.850;2023-05-10T08:55:52;15.21;86.77
67054;SHT31;53960;51.826;5.850;2023-05-10T08:58:18;15.24;86.78
67054;SHT31;53960;51.826;5.850;2023-05-10T09:00:45;15.17;86.57
67054;SHT31;53960;51.826;5.850;2023-05-10T09:03:10;15.14;86.38
67054;SHT31;53960;51.826;5.850;2023-05-10T09:05:36;15.16;86.80
67054;SHT31;53960;51.826;5.850;2023-05-10T09:08:02;15.18;85.44
67054;SHT31;53960;51.826;5.850;2023-05-10T09:10:29;15.16;85.94
67054;SHT31;53960;51.826;5.850;2023-05-10T09:12:56;15.17;85.70
67054;SHT31;53960;51.826;5.850;2023-05-10T09:15:21;15.14;85.29
67054;SHT31;53960;51.826;5.850;2023-05-10T09:17:49;15.12;85.60
67054;SHT31;53960;51.826;5.850;2023-05-10T09:20:15;15.06;86.31
67054;SHT31;53960;51.826;5.850;2023-05-10T09:22:42;15.08;86.16
67054;SHT31;53960;51.826;5.850;2023-05-10T09:25:09;15.08;86.29
67054;SHT31;53960;51.826;5.850;2023-05-10T09:27:37;15.00;86.38
67054;SHT31;53960;51.826;5.850;2023-05-10T09:30:04;14.98;86.91
67054;SHT31;53960;51.826;5.850;2023-05-10T09:32:40;14.98;87.04
67054;SHT31;53960;51.826;5.850;2023-05-10T09:35:09;15.06;86.95
67054;SHT31;53960;51.826;5.850;2023-05-10T09:37:35;15.14;86.70
67054;SHT31;53960;51.826;5.850;2023-05-10T09:40:04;15.23;86.35
67054;SHT31;53960;51.826;5.850;2023-05-10T09:42:29;15.27;85.18
67054;SHT31;53960;51.826;5.850;2023-05-10T09:45:03;15.28;85.28
67054;SHT31;53960;51.826;5.850;2023-05-10T09:47:28;15.23;84.96
67054;SHT31;53960;51.826;5.850;2023-05-10T09:49:54;15.20;85.14
67054;SHT31;53960;51.826;5.850;2023-05-10T09:52:22;15.25;85.12
67054;SHT31;53960;51.826;5.850;2023-05-10T09:54:54;15.23;84.87
67054;SHT31;53960;51.826;5.850;2023-05-10T09:57:23;15.34;85.30
67054;SHT31;53960;51.826;5.850;2023-05-10T09:59:49;15.39;84.52
67054;SHT31;53960;51.826;5.850;2023-05-10T10:02:16;15.39;83.90
67054;SHT31;53960;51.826;5.850;2023-05-10T10:04:42;15.48;83.41
67054;SHT31;53960;51.826;5.850;2023-05-10T10:07:07;15.56;82.85
67054;SHT31;53960;51.826;5.850;2023-05-10T10:09:34;15.65;83.39
67054;SHT31;53960;51.826;5.850;2023-05-10T10:12:00;15.75;83.00
67054;SHT31;53960;51.826;5.850;2023-05-10T10:14:26;15.81;81.97
67054;SHT31;53960;51.826;5.850;2023-05-10T10:16:52;15.78;81.50
67054;SHT31;53960;51.826;5.850;2023-05-10T10:19:21;15.70;82.46
67054;SHT31;53960;51.826;5.850;2023-05-10T10:21:47;15.70;82.90
67054;SHT31;53960;51.826;5.850;2023-05-10T10:24:13;15.76;83.53
67054;SHT31;53960;51.826;5.850;2023-05-10T10:26:38;15.86;82.39
67054;SHT31;53960;51.826;5.850;2023-05-10T10:29:26;15.97;81.79
67054;SHT31;53960;51.826;5.850;2023-05-10T10:32:10;16.05;81.98
67054;SHT31;53960;51.826;5.850;2023-05-10T10:34:38;16.24;82.07
67054;SHT31;53960;51.826;5.850;2023-05-10T10:37:05;16.31;81.85
67054;SHT31;53960;51.826;5.850;2023-05-10T10:39:31;16.58;80.88
67054;SHT31;53960;51.826;5.850;2023-05-10T10:41:57;16.75;80.46
67054;SHT31;53960;51.826;5.850;2023-05-10T10:47:02;16.63;80.76
67054;SHT31;53960;51.826;5.850;2023-05-10T10:49:30;16.57;80.98
67054;SHT31;53960;51.826;5.850;2023-05-10T10:52:14;16.63;80.09
67054;SHT31;53960;51.826;5.850;2023-05-10T10:54:41;16.61;79.34
67054;SHT31;53960;51.826;5.850;2023-05-10T10:57:17;16.64;77.68
67054;SHT31;53960;51.826;5.850;2023-05-10T10:59:43;16.51;77.31
67054;SHT31;53960;51.826;5.850;2023-05-10T11:02:09;16.60;77.06
67054;SHT31;53960;51.826;5.850;2023-05-10T11:04:42;16.72;75.88
67054;SHT31;53960;51.826;5.850;2023-05-10T11:07:18;16.85;75.98
67054;SHT31;53960;51.826;5.850;2023-05-10T11:09:44;16.89;76.30
67054;SHT31;53960;51.826;5.850;2023-05-10T11:12:10;16.98;76.92
67054;SHT31;53960;51.826;5.850;2023-05-10T11:14:35;16.99;74.76
67054;SHT31;53960;51.826;5.850;2023-05-10T11:17:01;16.99;75.43
67054;SHT31;53960;51.826;5.850;2023-05-10T11:19:27;16.99;75.00
67054;SHT31;53960;51.826;5.850;2023-05-10T11:24:30;16.94;75.84
67054;SHT31;53960;51.826;5.850;2023-05-10T11:26:56;16.76;76.09
67054;SHT31;53960;51.826;5.850;2023-05-10T11:29:22;16.76;76.26
67054;SHT31;53960;51.826;5.850;2023-05-10T11:31:48;16.78;77.18
67054;SHT31;53960;51.826;5.850;2023-05-10T11:34:27;16.96;76.86
67054;SHT31;53960;51.826;5.850;2023-05-10T11:36:54;16.99;76.93
67054;SHT31;53960;51.826;5.850;2023-05-10T11:39:21;17.02;76.13
67054;SHT31;53960;51.826;5.850;2023-05-10T11:41:49;17.08;75.75
67054;SHT31;53960;51.826;5.850;2023-05-10T11:44:15;17.15;75.51
67054;SHT31;53960;51.826;5.850;2023-05-10T11:46:40;17.18;75.34
67054;SHT31;53960;51.826;5.850;2023-05-10T11:49:07;17.20;75.22
67054;SHT31;53960;51.826;5.850;2023-05-10T11:51:35;17.18;75.46
67054;SHT31;53960;51.826;5.850;2023-05-10T11:54:05;17.23;75.38
67054;SHT31;53960;51.826;5.850;2023-05-10T11:56:32;17.29;76.09
67054;SHT31;53960;51.826;5.850;2023-05-10T11:58:58;17.25;75.89
67054;SHT31;53960;51.826;5.850;2023-05-10T12:01:26;17.22;75.35
67054;SHT31;53960;51.826;5.850;2023-05-10T12:03:54;17.30;76.06
67054;SHT31;53960;51.826;5.850;2023-05-10T12:06:20;17.29;75.52
67054;SHT31;53960;51.826;5.850;2023-05-10T12:08:47;17.19;75.99
67054;SHT31;53960;51.826;5.850;2023-05-10T12:11:13;17.23;75.33
67054;SHT31;53960;51.826;5.850;2023-05-10T12:13:42;17.26;75.32
67054;SHT31;53960;51.826;5.850;2023-05-10T12:18:43;17.25;75.77
67054;SHT31;53960;51.826;5.850;2023-05-10T12:21:12;17.16;74.49
67054;SHT31;53960;51.826;5.850;2023-05-10T12:23:38;17.03;76.00
67054;SHT31;53960;51.826;5.850;2023-05-10T12:26:04;17.02;76.06
67054;SHT31;53960;51.826;5.850;2023-05-10T12:28:31;17.02;75.90
67054;SHT31;53960;51.826;5.850;2023-05-10T12:30:57;17.06;76.72
67054;SHT31;53960;51.826;5.850;2023-05-10T12:33:23;17.09;76.17
67054;SHT31;53960;51.826;5.850;2023-05-10T12:35:53;17.08;76.10
67054;SHT31;53960;51.826;5.850;2023-05-10T12:38:33;17.06;76.15
67054;SHT31;53960;51.826;5.850;2023-05-10T12:41:03;17.06;76.29
67054;SHT31;53960;51.826;5.850;2023-05-10T12:43:29;17.09;76.06
67054;SHT31;53960;51.826;5.850;2023-05-10T12:45:55;17.06;75.95
67054;SHT31;53960;51.826;5.850;2023-05-10T12:48:20;17.01;75.86
67054;SHT31;53960;51.826;5.850;2023-05-10T12:50:46;16.92;76.60
67054;SHT31;53960;51.826;5.850;2023-05-10T12:53:13;16.89;76.30
67054;SHT31;53960;51.826;5.850;2023-05-10T12:55:40;16.79;77.79
67054;SHT31;53960;51.826;5.850;2023-05-10T12:58:05;16.67;79.27
67054;SHT31;53960;51.826;5.850;2023-05-10T13:00:31;16.58;80.35
67054;SHT31;53960;51.826;5.850;2023-05-10T13:02:56;16.48;81.77
67054;SHT31;53960;51.826;5.850;2023-05-10T13:05:21;16.40;82.86
67054;SHT31;53960;51.826;5.850;2023-05-10T13:07:46;16.36;83.43
67054;SHT31;53960;51.826;5.850;2023-05-10T13:10:12;16.28;83.84
67054;SHT31;53960;51.826;5.850;2023-05-10T13:12:37;16.28;84.45
67054;SHT31;53960;51.826;5.850;2023-05-10T13:15:03;16.26;84.75
67054;SHT31;53960;51.826;5.850;2023-05-10T13:17:28;16.27;84.55
67054;SHT31;53960;51.826;5.850;2023-05-10T13:19:54;16.23;84.87
67054;SHT31;53960;51.826;5.850;2023-05-10T13:22:20;16.23;85.55
67054;SHT31;53960;51.826;5.850;2023-05-10T13:24:45;16.24;85.86
67054;SHT31;53960;51.826;5.850;2023-05-10T13:27:10;16.26;85.74
67054;SHT31;53960;51.826;5.850;2023-05-10T13:29:36;16.26;85.59
67054;SHT31;53960;51.826;5.850;2023-05-10T13:32:01;16.28;85.73
67054;SHT31;53960;51.826;5.850;2023-05-10T13:34:26;16.34;85.56
67054;SHT31;53960;51.826;5.850;2023-05-10T13:36:52;16.33;85.11
67054;SHT31;53960;51.826;5.850;2023-05-10T13:39:19;16.31;85.47
67054;SHT31;53960;51.826;5.850;2023-05-10T13:41:45;16.27;84.88
67054;SHT31;53960;51.826;5.850;2023-05-10T13:44:12;16.31;84.52
67054;SHT31;53960;51.826;5.850;2023-05-10T13:46:38;16.28;84.91
67054;SHT31;53960;51.826;5.850;2023-05-10T13:49:03;16.26;84.62
67054;SHT31;53960;51.826;5.850;2023-05-10T13:51:29;16.23;84.37
67054;SHT31;53960;51.826;5.850;2023-05-10T13:53:54;16.24;84.47
67054;SHT31;53960;51.826;5.850;2023-05-10T13:56:19;16.31;84.40
67054;SHT31;53960;51.826;5.850;2023-05-10T13:58:45;16.31;83.37
67054;SHT31;53960;51.826;5.850;2023-05-10T14:01:10;16.27;83.06
67054;SHT31;53960;51.826;5.850;2023-05-10T14:03:37;16.30;84.23
67054;SHT31;53960;51.826;5.850;2023-05-10T14:06:02;16.33;83.83
67054;SHT31;53960;51.826;5.850;2023-05-10T14:08:27;16.33;83.06
67054;SHT31;53960;51.826;5.850;2023-05-10T14:10:53;16.37;82.88
67054;SHT31;53960;51.826;5.850;2023-05-10T14:13:18;16.34;83.41
67054;SHT31;53960;51.826;5.850;2023-05-10T14:15:43;16.40;83.92
67054;SHT31;53960;51.826;5.850;2023-05-10T14:18:09;16.40;82.67
67054;SHT31;53960;51.826;5.850;2023-05-10T14:20:34;16.41;83.09
67054;SHT31;53960;51.826;5.850;2023-05-10T14:23:00;16.40;83.32
67054;SHT31;53960;51.826;5.850;2023-05-10T14:25:25;16.40;82.83
67054;SHT31;53960;51.826;5.850;2023-05-10T14:27:51;16.37;83.84
67054;SHT31;53960;51.826;5.850;2023-05-10T14:30:16;16.43;84.29
67054;SHT31;53960;51.826;5.850;2023-05-10T14:32:42;16.44;84.50
67054;SHT31;53960;51.826;5.850;2023-05-10T14:35:07;16.50;83.98
67054;SHT31;53960;51.826;5.850;2023-05-10T14:37:33;16.53;84.15
67054;SHT31;53960;51.826;5.850;2023-05-10T14:39:58;16.64;84.58
67054;SHT31;53960;51.826;5.850;2023-05-10T14:42:23;16.69;81.63
67054;SHT31;53960;51.826;5.850;2023-05-10T14:44:49;16.76;81.43
67054;SHT31;53960;51.826;5.850;2023-05-10T14:47:14;16.82;80.09
67054;SHT31;53960;51.826;5.850;2023-05-10T14:49:39;16.96;80.88
67054;SHT31;53960;51.826;5.850;2023-05-10T14:52:06;16.94;80.60
67054;SHT31;53960;51.826;5.850;2023-05-10T14:54:31;17.01;81.49
67054;SHT31;53960;51.826;5.850;2023-05-10T14:56:58;17.05;80.58
67054;SHT31;53960;51.826;5.850;2023-05-10T14:59:23;17.03;80.87
67054;SHT31;53960;51.826;5.850;2023-05-10T15:01:49;17.08;80.73
67054;SHT31;53960;51.826;5.850;2023-05-10T15:04:14;17.13;81.00
67054;SHT31;53960;51.826;5.850;2023-05-10T15:06:41;17.22;81.53
67054;SHT31;53960;51.826;5.850;2023-05-10T15:09:07;17.16;81.11
67054;SHT31;53960;51.826;5.850;2023-05-10T15:11:32;17.25;79.85
67054;SHT31;53960;51.826;5.850;2023-05-10T15:13:57;17.18;80.96
67054;SHT31;53960;51.826;5.850;2023-05-10T15:16:23;17.08;80.56
67054;SHT31;53960;51.826;5.850;2023-05-10T15:18:48;16.96;80.87
67054;SHT31;53960;51.826;5.850;2023-05-10T15:21:14;16.99;80.57
67054;SHT31;53960;51.826;5.850;2023-05-10T15:23:39;17.01;79.95
67054;SHT31;53960;51.826;5.850;2023-05-10T15:26:04;16.94;79.59
67054;SHT31;53960;51.826;5.850;2023-05-10T15:28:30;16.89;80.65
67054;SHT31;53960;51.826;5.850;2023-05-10T15:30:55;16.88;80.56
67054;SHT31;53960;51.826;5.850;2023-05-10T15:33:21;16.86;80.86
67054;SHT31;53960;51.826;5.850;2023-05-10T15:35:47;16.94;79.47
67054;SHT31;53960;51.826;5.850;2023-05-10T15:38:12;17.02;79.94
67054;SHT31;53960;51.826;5.850;2023-05-10T15:40:37;17.02;79.64
67054;SHT31;53960;51.826;5.850;2023-05-10T15:43:03;17.02;79.07